sensor_id;sensor_type;location;lat;lon;timestamp;P1;durP1;ratioP1;P2;durP2;ratioP2
42420;SDS011;28063;48.140;11.588;2022-10-16T00:01:28;2.13;;;1.58;;
42420;SDS011;28063;48.140;11.588;2022-10-16T00:03:56;1.63;;;1.40;;
42420;SDS011;28063;48.140;11.588;2022-10-16T00:06:24;2.08;;;1.65;;
42420;SDS011;28063;48.140;11.588;2022-10-16T00:08:51;3.38;;;1.70;;
42420;SDS011;28063;48.140;11.588;2022-10-16T00:11:21;1.92;;;1.20;;
42420;SDS011;28063;48.140;11.588;2022-10-16T00:13:54;2.15;;;1.60;;
42420;SDS011;28063;48.140;11.588;2022-10-16T00:16:23;1.63;;;1.40;;
42420;SDS011;28063;48.140;11.588;2022-10-16T00:18:49;1.75;;;1.60;;
42420;SDS011;28063;48.140;11.588;2022-10-16T00:21:17;1.73;;;1.63;;
42420;SDS011;28063;48.140;11.588;2022-10-16T00:23:45;2.03;;;1.50;;
42420;SDS011;28063;48.140;11.588;2022-10-16T00:26:12;2.17;;;1.38;;
42420;SDS011;28063;48.140;11.588;2022-10-16T00:28:41;2.05;;;1.52;;
42420;SDS011;28063;48.140;11.588;2022-10-16T00:31:08;2.88;;;1.52;;
42420;SDS011;28063;48.140;11.588;2022-10-16T00:33:36;1.48;;;1.38;;
42420;SDS011;28063;48.140;11.588;2022-10-16T00:36:04;1.73;;;1.48;;
42420;SDS011;28063;48.140;11.588;2022-10-16T00:38:31;1.40;;;1.15;;
42420;SDS011;28063;48.140;11.588;2022-10-16T00:40:57;2.03;;;1.52;;
42420;SDS011;28063;48.140;11.588;2022-10-16T00:46:16;1.40;;;1.30;;
42420;SDS011;28063;48.140;11.588;2022-10-16T00:48:54;2.72;;;1.63;;
42420;SDS011;28063;48.140;11.588;2022-10-16T00:51:36;1.58;;;1.38;;
42420;SDS011;28063;48.140;11.588;2022-10-16T00:54:04;1.42;;;1.30;;
42420;SDS011;28063;48.140;11.588;2022-10-16T00:56:34;1.60;;;1.50;;
42420;SDS011;28063;48.140;11.588;2022-10-16T00:59:01;1.85;;;1.20;;
42420;SDS011;28063;48.140;11.588;2022-10-16T01:01:31;1.42;;;1.10;;
42420;SDS011;28063;48.140;11.588;2022-10-16T01:03:57;1.52;;;1.30;;
42420;SDS011;28063;48.140;11.588;2022-10-16T01:06:31;1.08;;;1.08;;
42420;SDS011;28063;48.140;11.588;2022-10-16T01:14:42;1.90;;;1.02;;
42420;SDS011;28063;48.140;11.588;2022-10-16T01:17:18;1.88;;;1.27;;
42420;SDS011;28063;48.140;11.588;2022-10-16T01:20:10;1.90;;;1.40;;
42420;SDS011;28063;48.140;11.588;2022-10-16T01:22:50;1.88;;;1.25;;
42420;SDS011;28063;48.140;11.588;2022-10-16T01:28:47;1.25;;;1.10;;
42420;SDS011;28063;48.140;11.588;2022-10-16T01:31:16;1.30;;;1.20;;
42420;SDS011;28063;48.140;11.588;2022-10-16T01:33:46;1.33;;;1.08;;
42420;SDS011;28063;48.140;11.588;2022-10-16T01:36:18;1.83;;;1.17;;
42420;SDS011;28063;48.140;11.588;2022-10-16T01:38:50;1.42;;;1.23;;
42420;SDS011;28063;48.140;11.588;2022-10-16T01:41:33;0.90;;;0.88;;
42420;SDS011;28063;48.140;11.588;2022-10-16T01:46:44;1.20;;;0.98;;
42420;SDS011;28063;48.140;11.588;2022-10-16T01:49:12;2.22;;;1.40;;
42420;SDS011;28063;48.140;11.588;2022-10-16T01:51:38;4.00;;;1.58;;
42420;SDS011;28063;48.140;11.588;2022-10-16T01:54:04;3.08;;;1.38;;
42420;SDS011;28063;48.140;11.588;2022-10-16T01:56:33;1.70;;;1.58;;
42420;SDS011;28063;48.140;11.588;2022-10-16T01:59:05;2.42;;;1.38;;
42420;SDS011;28063;48.140;11.588;2022-10-16T02:01:35;1.70;;;1.35;;
42420;SDS011;28063;48.140;11.588;2022-10-16T02:04:15;1.83;;;1.60;;
42420;SDS011;28063;48.140;11.588;2022-10-16T02:06:44;1.40;;;1.25;;
42420;SDS011;28063;48.140;11.588;2022-10-16T02:09:09;1.25;;;1.15;;
42420;SDS011;28063;48.140;11.588;2022-10-16T02:11:35;1.30;;;1.20;;
42420;SDS011;28063;48.140;11.588;2022-10-16T02:14:03;1.17;;;1.08;;
42420;SDS011;28063;48.140;11.588;2022-10-16T02:16:37;1.30;;;1.20;;
42420;SDS011;28063;48.140;11.588;2022-10-16T02:19:05;1.05;;;0.93;;
42420;SDS011;28063;48.140;11.588;2022-10-16T02:21:40;1.52;;;1.17;;
42420;SDS011;28063;48.140;11.588;2022-10-16T02:27:27;3.15;;;1.13;;
42420;SDS011;28063;48.140;11.588;2022-10-16T02:30:07;2.63;;;0.77;;
42420;SDS011;28063;48.140;11.588;2022-10-16T02:32:46;1.30;;;1.10;;
42420;SDS011;28063;48.140;11.588;2022-10-16T02:35:15;2.53;;;1.08;;
42420;SDS011;28063;48.140;11.588;2022-10-16T02:37:43;1.35;;;1.13;;
42420;SDS011;28063;48.140;11.588;2022-10-16T02:40:11;1.75;;;1.08;;
42420;SDS011;28063;48.140;11.588;2022-10-16T02:42:38;0.82;;;0.70;;
42420;SDS011;28063;48.140;11.588;2022-10-16T02:45:06;0.70;;;0.70;;
42420;SDS011;28063;48.140;11.588;2022-10-16T02:47:32;2.65;;;1.08;;
42420;SDS011;28063;48.140;11.588;2022-10-16T02:49:58;1.05;;;0.95;;
42420;SDS011;28063;48.140;11.588;2022-10-16T02:52:24;1.20;;;1.10;;
42420;SDS011;28063;48.140;11.588;2022-10-16T02:54:50;3.38;;;0.98;;
42420;SDS011;28063;48.140;11.588;2022-10-16T02:57:16;1.52;;;1.20;;
42420;SDS011;28063;48.140;11.588;2022-10-16T02:59:42;1.15;;;1.05;;
42420;SDS011;28063;48.140;11.588;2022-10-16T03:02:08;0.65;;;0.65;;
42420;SDS011;28063;48.140;11.588;2022-10-16T03:04:34;1.08;;;0.95;;
42420;SDS011;28063;48.140;11.588;2022-10-16T03:07:00;1.00;;;1.00;;
42420;SDS011;28063;48.140;11.588;2022-10-16T03:09:25;1.15;;;1.08;;
42420;SDS011;28063;48.140;11.588;2022-10-16T03:11:51;1.17;;;1.08;;
42420;SDS011;28063;48.140;11.588;2022-10-16T03:14:17;1.10;;;1.00;;
42420;SDS011;28063;48.140;11.588;2022-10-16T03:16:42;2.38;;;1.15;;
42420;SDS011;28063;48.140;11.588;2022-10-16T03:19:08;1.38;;;1.13;;
42420;SDS011;28063;48.140;11.588;2022-10-16T03:21:34;1.08;;;0.90;;
42420;SDS011;28063;48.140;11.588;2022-10-16T03:23:59;0.95;;;0.90;;
42420;SDS011;28063;48.140;11.588;2022-10-16T03:26:25;1.05;;;1.00;;
42420;SDS011;28063;48.140;11.588;2022-10-16T03:28:51;1.42;;;1.10;;
42420;SDS011;28063;48.140;11.588;2022-10-16T03:31:16;1.30;;;1.00;;
42420;SDS011;28063;48.140;11.588;2022-10-16T03:33:42;2.13;;;0.88;;
42420;SDS011;28063;48.140;11.588;2022-10-16T03:36:08;1.02;;;1.00;;
42420;SDS011;28063;48.140;11.588;2022-10-16T03:39:23;0.95;;;0.85;;
42420;SDS011;28063;48.140;11.588;2022-10-16T03:41:49;1.77;;;1.10;;
42420;SDS011;28063;48.140;11.588;2022-10-16T03:44:16;0.90;;;0.90;;
42420;SDS011;28063;48.140;11.588;2022-10-16T03:46:47;1.13;;;1.02;;
42420;SDS011;28063;48.140;11.588;2022-10-16T03:49:14;1.52;;;1.15;;
42420;SDS011;28063;48.140;11.588;2022-10-16T03:51:44;2.80;;;1.38;;
42420;SDS011;28063;48.140;11.588;2022-10-16T03:54:46;1.88;;;1.00;;
42420;SDS011;28063;48.140;11.588;2022-10-16T03:57:12;1.63;;;1.20;;
42420;SDS011;28063;48.140;11.588;2022-10-16T03:59:38;1.90;;;1.30;;
42420;SDS011;28063;48.140;11.588;2022-10-16T04:02:03;1.15;;;1.05;;
42420;SDS011;28063;48.140;11.588;2022-10-16T04:04:29;1.70;;;1.30;;
42420;SDS011;28063;48.140;11.588;2022-10-16T04:06:54;1.40;;;1.20;;
42420;SDS011;28063;48.140;11.588;2022-10-16T04:09:20;2.53;;;1.10;;
42420;SDS011;28063;48.140;11.588;2022-10-16T04:11:46;1.05;;;0.98;;
42420;SDS011;28063;48.140;11.588;2022-10-16T04:14:12;0.95;;;0.90;;
42420;SDS011;28063;48.140;11.588;2022-10-16T04:16:37;0.95;;;0.95;;
42420;SDS011;28063;48.140;11.588;2022-10-16T04:19:03;1.00;;;1.00;;
42420;SDS011;28063;48.140;11.588;2022-10-16T04:21:29;1.52;;;1.42;;
42420;SDS011;28063;48.140;11.588;2022-10-16T04:23:55;0.80;;;0.80;;
42420;SDS011;28063;48.140;11.588;2022-10-16T04:26:20;1.10;;;0.98;;
42420;SDS011;28063;48.140;11.588;2022-10-16T04:28:46;0.75;;;0.75;;
42420;SDS011;28063;48.140;11.588;2022-10-16T04:31:11;1.85;;;1.15;;
42420;SDS011;28063;48.140;11.588;2022-10-16T04:33:37;1.00;;;1.00;;
42420;SDS011;28063;48.140;11.588;2022-10-16T04:36:03;1.85;;;1.13;;
42420;SDS011;28063;48.140;11.588;2022-10-16T04:38:29;1.27;;;1.20;;
42420;SDS011;28063;48.140;11.588;2022-10-16T04:40:55;1.23;;;1.13;;
42420;SDS011;28063;48.140;11.588;2022-10-16T04:43:21;1.20;;;1.10;;
42420;SDS011;28063;48.140;11.588;2022-10-16T04:45:47;1.10;;;1.00;;
42420;SDS011;28063;48.140;11.588;2022-10-16T04:48:15;1.15;;;1.00;;
42420;SDS011;28063;48.140;11.588;2022-10-16T04:50:41;1.00;;;0.90;;
42420;SDS011;28063;48.140;11.588;2022-10-16T04:53:06;1.30;;;1.20;;
42420;SDS011;28063;48.140;11.588;2022-10-16T04:55:32;1.38;;;1.27;;
42420;SDS011;28063;48.140;11.588;2022-10-16T04:57:58;0.90;;;0.90;;
42420;SDS011;28063;48.140;11.588;2022-10-16T05:00:23;1.17;;;1.05;;
42420;SDS011;28063;48.140;11.588;2022-10-16T05:02:49;1.08;;;0.98;;
42420;SDS011;28063;48.140;11.588;2022-10-16T05:05:15;2.25;;;0.73;;
42420;SDS011;28063;48.140;11.588;2022-10-16T05:07:42;0.73;;;0.73;;
42420;SDS011;28063;48.140;11.588;2022-10-16T05:10:07;2.70;;;0.90;;
42420;SDS011;28063;48.140;11.588;2022-10-16T05:12:33;1.85;;;1.40;;
42420;SDS011;28063;48.140;11.588;2022-10-16T05:14:59;1.48;;;1.05;;
42420;SDS011;28063;48.140;11.588;2022-10-16T05:17:24;1.15;;;1.05;;
42420;SDS011;28063;48.140;11.588;2022-10-16T05:19:51;4.43;;;1.38;;
42420;SDS011;28063;48.140;11.588;2022-10-16T05:22:16;0.93;;;0.93;;
42420;SDS011;28063;48.140;11.588;2022-10-16T05:24:42;1.17;;;1.08;;
42420;SDS011;28063;48.140;11.588;2022-10-16T05:27:08;1.90;;;0.90;;
42420;SDS011;28063;48.140;11.588;2022-10-16T05:29:33;1.00;;;1.00;;
42420;SDS011;28063;48.140;11.588;2022-10-16T05:32:00;1.10;;;1.00;;
42420;SDS011;28063;48.140;11.588;2022-10-16T05:34:25;0.82;;;0.77;;
42420;SDS011;28063;48.140;11.588;2022-10-16T05:36:51;0.90;;;0.90;;
42420;SDS011;28063;48.140;11.588;2022-10-16T05:39:17;1.05;;;0.98;;
42420;SDS011;28063;48.140;11.588;2022-10-16T05:41:43;1.35;;;1.10;;
42420;SDS011;28063;48.140;11.588;2022-10-16T05:44:09;1.35;;;1.25;;
42420;SDS011;28063;48.140;11.588;2022-10-16T05:46:34;1.45;;;1.20;;
42420;SDS011;28063;48.140;11.588;2022-10-16T05:49:00;2.25;;;1.90;;
42420;SDS011;28063;48.140;11.588;2022-10-16T05:51:26;3.35;;;2.40;;
42420;SDS011;28063;48.140;11.588;2022-10-16T05:53:51;2.65;;;2.03;;
42420;SDS011;28063;48.140;11.588;2022-10-16T05:56:17;1.95;;;1.80;;
42420;SDS011;28063;48.140;11.588;2022-10-16T05:58:43;1.98;;;1.80;;
42420;SDS011;28063;48.140;11.588;2022-10-16T06:01:13;1.70;;;1.60;;
42420;SDS011;28063;48.140;11.588;2022-10-16T06:03:40;1.52;;;1.42;;
42420;SDS011;28063;48.140;11.588;2022-10-16T06:06:13;1.73;;;1.63;;
42420;SDS011;28063;48.140;11.588;2022-10-16T06:08:41;2.22;;;2.03;;
42420;SDS011;28063;48.140;11.588;2022-10-16T06:11:09;1.88;;;1.77;;
42420;SDS011;28063;48.140;11.588;2022-10-16T06:13:37;2.33;;;2.00;;
42420;SDS011;28063;48.140;11.588;2022-10-16T06:16:04;2.38;;;2.00;;
42420;SDS011;28063;48.140;11.588;2022-10-16T06:18:30;3.25;;;2.55;;
42420;SDS011;28063;48.140;11.588;2022-10-16T06:20:56;3.75;;;3.20;;
42420;SDS011;28063;48.140;11.588;2022-10-16T06:23:23;4.78;;;3.60;;
42420;SDS011;28063;48.140;11.588;2022-10-16T06:25:49;5.25;;;3.90;;
42420;SDS011;28063;48.140;11.588;2022-10-16T06:28:15;6.35;;;4.80;;
42420;SDS011;28063;48.140;11.588;2022-10-16T06:30:41;7.28;;;5.13;;
42420;SDS011;28063;48.140;11.588;2022-10-16T06:33:09;9.90;;;6.68;;
42420;SDS011;28063;48.140;11.588;2022-10-16T06:35:35;10.05;;;6.65;;
42420;SDS011;28063;48.140;11.588;2022-10-16T06:38:02;10.77;;;6.82;;
42420;SDS011;28063;48.140;11.588;2022-10-16T06:40:28;10.85;;;6.45;;
42420;SDS011;28063;48.140;11.588;2022-10-16T06:42:55;11.13;;;5.57;;
42420;SDS011;28063;48.140;11.588;2022-10-16T06:45:20;7.40;;;4.70;;
42420;SDS011;28063;48.140;11.588;2022-10-16T06:47:46;5.70;;;3.72;;
42420;SDS011;28063;48.140;11.588;2022-10-16T06:50:15;4.57;;;3.17;;
42420;SDS011;28063;48.140;11.588;2022-10-16T06:52:40;3.80;;;2.80;;
42420;SDS011;28063;48.140;11.588;2022-10-16T06:55:06;3.17;;;2.55;;
42420;SDS011;28063;48.140;11.588;2022-10-16T06:57:32;2.80;;;2.28;;
42420;SDS011;28063;48.140;11.588;2022-10-16T06:59:58;3.33;;;2.10;;
42420;SDS011;28063;48.140;11.588;2022-10-16T07:02:23;2.90;;;1.98;;
42420;SDS011;28063;48.140;11.588;2022-10-16T07:04:49;3.75;;;2.40;;
42420;SDS011;28063;48.140;11.588;2022-10-16T07:07:15;1.98;;;1.75;;
42420;SDS011;28063;48.140;11.588;2022-10-16T07:09:40;1.70;;;1.60;;
42420;SDS011;28063;48.140;11.588;2022-10-16T07:12:06;1.30;;;1.20;;
42420;SDS011;28063;48.140;11.588;2022-10-16T07:14:35;1.48;;;1.38;;
42420;SDS011;28063;48.140;11.588;2022-10-16T07:17:00;3.80;;;1.75;;
42420;SDS011;28063;48.140;11.588;2022-10-16T07:19:27;2.40;;;1.83;;
42420;SDS011;28063;48.140;11.588;2022-10-16T07:21:53;2.05;;;1.85;;
42420;SDS011;28063;48.140;11.588;2022-10-16T07:24:18;1.90;;;1.70;;
42420;SDS011;28063;48.140;11.588;2022-10-16T07:26:47;1.63;;;1.52;;
42420;SDS011;28063;48.140;11.588;2022-10-16T07:29:14;3.55;;;1.50;;
42420;SDS011;28063;48.140;11.588;2022-10-16T07:31:42;1.73;;;1.63;;
42420;SDS011;28063;48.140;11.588;2022-10-16T07:34:09;3.72;;;1.80;;
42420;SDS011;28063;48.140;11.588;2022-10-16T07:36:36;1.70;;;1.55;;
42420;SDS011;28063;48.140;11.588;2022-10-16T07:39:01;12.93;;;3.38;;
42420;SDS011;28063;48.140;11.588;2022-10-16T07:41:27;2.58;;;1.80;;
42420;SDS011;28063;48.140;11.588;2022-10-16T07:43:53;1.60;;;1.50;;
42420;SDS011;28063;48.140;11.588;2022-10-16T07:46:20;1.70;;;1.60;;
42420;SDS011;28063;48.140;11.588;2022-10-16T07:48:47;2.60;;;2.00;;
42420;SDS011;28063;48.140;11.588;2022-10-16T07:51:14;2.15;;;1.95;;
42420;SDS011;28063;48.140;11.588;2022-10-16T07:53:41;2.53;;;2.10;;
42420;SDS011;28063;48.140;11.588;2022-10-16T07:56:07;1.60;;;1.50;;
42420;SDS011;28063;48.140;11.588;2022-10-16T07:58:34;1.65;;;1.55;;
42420;SDS011;28063;48.140;11.588;2022-10-16T08:01:04;2.08;;;1.80;;
42420;SDS011;28063;48.140;11.588;2022-10-16T08:03:31;6.70;;;1.98;;
42420;SDS011;28063;48.140;11.588;2022-10-16T08:05:58;1.70;;;1.60;;
42420;SDS011;28063;48.140;11.588;2022-10-16T08:08:24;1.65;;;1.55;;
42420;SDS011;28063;48.140;11.588;2022-10-16T08:10:49;1.77;;;1.67;;
42420;SDS011;28063;48.140;11.588;2022-10-16T08:13:15;1.50;;;1.40;;
42420;SDS011;28063;48.140;11.588;2022-10-16T08:15:41;1.55;;;1.42;;
42420;SDS011;28063;48.140;11.588;2022-10-16T08:18:11;1.65;;;1.55;;
42420;SDS011;28063;48.140;11.588;2022-10-16T08:20:38;1.77;;;1.50;;
42420;SDS011;28063;48.140;11.588;2022-10-16T08:23:05;1.30;;;1.20;;
42420;SDS011;28063;48.140;11.588;2022-10-16T08:25:33;1.33;;;1.23;;
42420;SDS011;28063;48.140;11.588;2022-10-16T08:28:06;1.52;;;1.42;;
42420;SDS011;28063;48.140;11.588;2022-10-16T08:30:34;1.70;;;1.60;;
42420;SDS011;28063;48.140;11.588;2022-10-16T08:33:00;1.65;;;1.55;;
42420;SDS011;28063;48.140;11.588;2022-10-16T08:35:26;1.60;;;1.40;;
42420;SDS011;28063;48.140;11.588;2022-10-16T08:37:52;1.55;;;1.42;;
42420;SDS011;28063;48.140;11.588;2022-10-16T08:45:29;1.20;;;1.10;;
42420;SDS011;28063;48.140;11.588;2022-10-16T08:48:22;1.42;;;1.33;;
42420;SDS011;28063;48.140;11.588;2022-10-16T08:51:11;1.40;;;1.30;;
42420;SDS011;28063;48.140;11.588;2022-10-16T08:53:49;1.30;;;1.20;;
42420;SDS011;28063;48.140;11.588;2022-10-16T08:56:25;1.40;;;1.30;;
42420;SDS011;28063;48.140;11.588;2022-10-16T08:58:52;1.38;;;1.10;;
42420;SDS011;28063;48.140;11.588;2022-10-16T09:01:20;1.00;;;1.00;;
42420;SDS011;28063;48.140;11.588;2022-10-16T09:09:06;1.88;;;1.10;;
42420;SDS011;28063;48.140;11.588;2022-10-16T09:12:14;1.10;;;1.10;;
42420;SDS011;28063;48.140;11.588;2022-10-16T09:18:06;1.38;;;1.27;;
42420;SDS011;28063;48.140;11.588;2022-10-16T09:23:42;0.90;;;0.90;;
42420;SDS011;28063;48.140;11.588;2022-10-16T09:26:09;1.02;;;1.02;;
42420;SDS011;28063;48.140;11.588;2022-10-16T09:28:38;1.20;;;1.10;;
42420;SDS011;28063;48.140;11.588;2022-10-16T09:31:04;2.17;;;1.42;;
42420;SDS011;28063;48.140;11.588;2022-10-16T09:33:33;1.20;;;1.13;;
42420;SDS011;28063;48.140;11.588;2022-10-16T09:36:02;1.02;;;1.02;;
42420;SDS011;28063;48.140;11.588;2022-10-16T09:38:31;1.08;;;1.08;;
42420;SDS011;28063;48.140;11.588;2022-10-16T09:40:59;2.08;;;1.35;;
42420;SDS011;28063;48.140;11.588;2022-10-16T09:43:31;1.48;;;1.38;;
42420;SDS011;28063;48.140;11.588;2022-10-16T09:46:06;1.60;;;1.50;;
42420;SDS011;28063;48.140;11.588;2022-10-16T09:48:39;1.50;;;1.40;;
42420;SDS011;28063;48.140;11.588;2022-10-16T09:51:18;1.55;;;1.45;;
42420;SDS011;28063;48.140;11.588;2022-10-16T09:53:48;1.55;;;1.23;;
42420;SDS011;28063;48.140;11.588;2022-10-16T09:56:22;1.50;;;1.40;;
42420;SDS011;28063;48.140;11.588;2022-10-16T09:58:58;1.33;;;1.23;;
42420;SDS011;28063;48.140;11.588;2022-10-16T10:01:52;3.38;;;1.20;;
42420;SDS011;28063;48.140;11.588;2022-10-16T10:04:22;2.45;;;1.27;;
42420;SDS011;28063;48.140;11.588;2022-10-16T10:06:50;1.45;;;1.35;;
42420;SDS011;28063;48.140;11.588;2022-10-16T10:09:30;1.67;;;1.58;;
42420;SDS011;28063;48.140;11.588;2022-10-16T10:12:06;1.42;;;1.33;;
42420;SDS011;28063;48.140;11.588;2022-10-16T10:14:51;1.75;;;1.65;;
42420;SDS011;28063;48.140;11.588;2022-10-16T10:17:22;1.27;;;1.17;;
42420;SDS011;28063;48.140;11.588;2022-10-16T10:19:50;2.17;;;1.50;;
42420;SDS011;28063;48.140;11.588;2022-10-16T10:22:29;3.85;;;2.00;;
42420;SDS011;28063;48.140;11.588;2022-10-16T10:25:00;1.85;;;1.25;;
42420;SDS011;28063;48.140;11.588;2022-10-16T10:27:51;1.42;;;1.33;;
42420;SDS011;28063;48.140;11.588;2022-10-16T10:35:56;1.50;;;1.40;;
42420;SDS011;28063;48.140;11.588;2022-10-16T10:44:03;2.35;;;1.45;;
42420;SDS011;28063;48.140;11.588;2022-10-16T10:46:50;1.65;;;1.20;;
42420;SDS011;28063;48.140;11.588;2022-10-16T10:49:39;2.25;;;1.63;;
42420;SDS011;28063;48.140;11.588;2022-10-16T11:00:39;2.85;;;1.63;;
42420;SDS011;28063;48.140;11.588;2022-10-16T11:05:57;3.05;;;1.63;;
42420;SDS011;28063;48.140;11.588;2022-10-16T11:08:35;1.52;;;1.10;;
42420;SDS011;28063;48.140;11.588;2022-10-16T11:13:55;1.30;;;1.20;;
42420;SDS011;28063;48.140;11.588;2022-10-16T11:25:01;1.73;;;1.27;;
42420;SDS011;28063;48.140;11.588;2022-10-16T11:30:25;2.58;;;1.77;;
42420;SDS011;28063;48.140;11.588;2022-10-16T11:33:29;1.23;;;1.10;;
42420;SDS011;28063;48.140;11.588;2022-10-16T11:36:21;1.02;;;1.02;;
42420;SDS011;28063;48.140;11.588;2022-10-16T11:42:37;0.90;;;0.90;;
42420;SDS011;28063;48.140;11.588;2022-10-16T11:53:34;0.50;;;0.50;;
42420;SDS011;28063;48.140;11.588;2022-10-16T11:55:57;0.75;;;0.70;;
42420;SDS011;28063;48.140;11.588;2022-10-16T12:08:49;0.70;;;0.70;;
42420;SDS011;28063;48.140;11.588;2022-10-16T12:14:16;1.33;;;0.80;;
42420;SDS011;28063;48.140;11.588;2022-10-16T12:16:55;0.60;;;0.60;;
42420;SDS011;28063;48.140;11.588;2022-10-16T12:19:24;0.38;;;0.38;;
42420;SDS011;28063;48.140;11.588;2022-10-16T12:21:52;2.38;;;0.80;;
42420;SDS011;28063;48.140;11.588;2022-10-16T12:24:41;0.90;;;0.90;;
42420;SDS011;28063;48.140;11.588;2022-10-16T12:29:49;0.60;;;0.60;;
42420;SDS011;28063;48.140;11.588;2022-10-16T12:32:34;1.23;;;0.98;;
42420;SDS011;28063;48.140;11.588;2022-10-16T12:35:02;0.75;;;0.75;;
42420;SDS011;28063;48.140;11.588;2022-10-16T12:37:33;1.17;;;0.80;;
42420;SDS011;28063;48.140;11.588;2022-10-16T12:40:11;1.75;;;0.93;;
42420;SDS011;28063;48.140;11.588;2022-10-16T12:42:40;1.95;;;0.70;;
42420;SDS011;28063;48.140;11.588;2022-10-16T12:47:56;5.25;;;3.83;;
42420;SDS011;28063;48.140;11.588;2022-10-16T12:50:27;1.55;;;1.45;;
42420;SDS011;28063;48.140;11.588;2022-10-16T12:52:59;0.80;;;0.80;;
42420;SDS011;28063;48.140;11.588;2022-10-16T12:55:26;0.73;;;0.70;;
42420;SDS011;28063;48.140;11.588;2022-10-16T12:58:09;0.88;;;0.80;;
42420;SDS011;28063;48.140;11.588;2022-10-16T13:06:51;1.25;;;1.00;;
42420;SDS011;28063;48.140;11.588;2022-10-16T13:12:35;1.05;;;0.90;;
42420;SDS011;28063;48.140;11.588;2022-10-16T13:18:33;0.65;;;0.65;;
42420;SDS011;28063;48.140;11.588;2022-10-16T13:27:55;0.70;;;0.70;;
42420;SDS011;28063;48.140;11.588;2022-10-16T13:35:56;1.00;;;1.00;;
42420;SDS011;28063;48.140;11.588;2022-10-16T13:38:23;2.45;;;1.08;;
42420;SDS011;28063;48.140;11.588;2022-10-16T13:43:20;0.73;;;0.73;;
42420;SDS011;28063;48.140;11.588;2022-10-16T13:45:57;0.68;;;0.68;;
42420;SDS011;28063;48.140;11.588;2022-10-16T13:48:24;0.65;;;0.65;;
42420;SDS011;28063;48.140;11.588;2022-10-16T13:53:30;0.85;;;0.82;;
42420;SDS011;28063;48.140;11.588;2022-10-16T13:55:59;0.68;;;0.63;;
42420;SDS011;28063;48.140;11.588;2022-10-16T13:58:28;1.70;;;1.60;;
42420;SDS011;28063;48.140;11.588;2022-10-16T14:00:58;1.30;;;1.20;;
42420;SDS011;28063;48.140;11.588;2022-10-16T14:03:38;1.25;;;1.15;;
42420;SDS011;28063;48.140;11.588;2022-10-16T14:06:06;3.70;;;1.10;;
42420;SDS011;28063;48.140;11.588;2022-10-16T14:08:37;0.90;;;0.90;;
42420;SDS011;28063;48.140;11.588;2022-10-16T14:11:22;1.00;;;0.98;;
42420;SDS011;28063;48.140;11.588;2022-10-16T14:13:49;0.85;;;0.85;;
42420;SDS011;28063;48.140;11.588;2022-10-16T14:16:16;0.65;;;0.65;;
42420;SDS011;28063;48.140;11.588;2022-10-16T14:18:45;0.95;;;0.85;;
42420;SDS011;28063;48.140;11.588;2022-10-16T14:21:12;0.50;;;0.50;;
42420;SDS011;28063;48.140;11.588;2022-10-16T14:23:40;0.60;;;0.60;;
42420;SDS011;28063;48.140;11.588;2022-10-16T14:28:38;0.80;;;0.80;;
42420;SDS011;28063;48.140;11.588;2022-10-16T14:33:52;1.30;;;1.20;;
42420;SDS011;28063;48.140;11.588;2022-10-16T14:36:22;1.42;;;0.90;;
42420;SDS011;28063;48.140;11.588;2022-10-16T14:41:27;1.40;;;0.80;;
42420;SDS011;28063;48.140;11.588;2022-10-16T14:43:54;1.15;;;1.05;;
42420;SDS011;28063;48.140;11.588;2022-10-16T14:46:22;1.63;;;0.80;;
42420;SDS011;28063;48.140;11.588;2022-10-16T14:48:51;4.85;;;1.30;;
42420;SDS011;28063;48.140;11.588;2022-10-16T14:51:20;2.05;;;0.90;;
42420;SDS011;28063;48.140;11.588;2022-10-16T14:53:47;0.93;;;0.85;;
42420;SDS011;28063;48.140;11.588;2022-10-16T14:56:15;0.85;;;0.85;;
42420;SDS011;28063;48.140;11.588;2022-10-16T14:58:42;1.33;;;0.88;;
42420;SDS011;28063;48.140;11.588;2022-10-16T15:01:09;0.70;;;0.70;;
42420;SDS011;28063;48.140;11.588;2022-10-16T15:03:36;1.23;;;0.70;;
42420;SDS011;28063;48.140;11.588;2022-10-16T15:06:02;1.02;;;1.00;;
42420;SDS011;28063;48.140;11.588;2022-10-16T15:08:28;1.85;;;0.88;;
42420;SDS011;28063;48.140;11.588;2022-10-16T15:10:55;2.80;;;0.80;;
42420;SDS011;28063;48.140;11.588;2022-10-16T15:13:21;3.13;;;0.80;;
42420;SDS011;28063;48.140;11.588;2022-10-16T15:15:47;1.30;;;1.15;;
42420;SDS011;28063;48.140;11.588;2022-10-16T15:18:16;1.17;;;0.80;;
42420;SDS011;28063;48.140;11.588;2022-10-16T15:20:45;1.17;;;0.88;;
42420;SDS011;28063;48.140;11.588;2022-10-16T15:23:14;2.38;;;1.15;;
42420;SDS011;28063;48.140;11.588;2022-10-16T15:25:43;1.35;;;1.23;;
42420;SDS011;28063;48.140;11.588;2022-10-16T15:28:10;1.40;;;0.90;;
42420;SDS011;28063;48.140;11.588;2022-10-16T15:30:36;2.15;;;1.30;;
42420;SDS011;28063;48.140;11.588;2022-10-16T15:33:11;5.50;;;1.45;;
42420;SDS011;28063;48.140;11.588;2022-10-16T15:35:39;2.08;;;1.10;;
42420;SDS011;28063;48.140;11.588;2022-10-16T15:38:06;2.85;;;0.98;;
42420;SDS011;28063;48.140;11.588;2022-10-16T15:40:34;0.55;;;0.55;;
42420;SDS011;28063;48.140;11.588;2022-10-16T15:42:59;1.17;;;0.95;;
42420;SDS011;28063;48.140;11.588;2022-10-16T15:45:28;1.17;;;0.77;;
42420;SDS011;28063;48.140;11.588;2022-10-16T15:47:54;3.10;;;1.30;;
42420;SDS011;28063;48.140;11.588;2022-10-16T15:50:20;1.67;;;0.90;;
42420;SDS011;28063;48.140;11.588;2022-10-16T15:52:46;1.02;;;0.88;;
42420;SDS011;28063;48.140;11.588;2022-10-16T15:55:12;1.02;;;0.77;;
42420;SDS011;28063;48.140;11.588;2022-10-16T15:57:38;4.18;;;1.15;;
42420;SDS011;28063;48.140;11.588;2022-10-16T16:00:11;2.78;;;1.10;;
42420;SDS011;28063;48.140;11.588;2022-10-16T16:02:41;1.60;;;0.98;;
42420;SDS011;28063;48.140;11.588;2022-10-16T16:05:22;1.30;;;1.02;;
42420;SDS011;28063;48.140;11.588;2022-10-16T16:07:48;4.68;;;1.70;;
42420;SDS011;28063;48.140;11.588;2022-10-16T16:10:15;1.35;;;1.23;;
42420;SDS011;28063;48.140;11.588;2022-10-16T16:12:41;1.60;;;0.98;;
42420;SDS011;28063;48.140;11.588;2022-10-16T16:15:08;0.80;;;0.80;;
42420;SDS011;28063;48.140;11.588;2022-10-16T16:17:34;1.15;;;1.05;;
42420;SDS011;28063;48.140;11.588;2022-10-16T16:20:00;1.73;;;1.38;;
42420;SDS011;28063;48.140;11.588;2022-10-16T16:22:26;2.95;;;1.52;;
42420;SDS011;28063;48.140;11.588;2022-10-16T16:24:52;1.75;;;1.10;;
42420;SDS011;28063;48.140;11.588;2022-10-16T16:27:18;2.83;;;1.10;;
42420;SDS011;28063;48.140;11.588;2022-10-16T16:29:45;2.70;;;1.15;;
42420;SDS011;28063;48.140;11.588;2022-10-16T16:32:11;2.83;;;1.40;;
42420;SDS011;28063;48.140;11.588;2022-10-16T16:34:37;2.00;;;1.23;;
42420;SDS011;28063;48.140;11.588;2022-10-16T16:37:02;1.40;;;1.00;;
42420;SDS011;28063;48.140;11.588;2022-10-16T16:39:28;1.20;;;1.10;;
42420;SDS011;28063;48.140;11.588;2022-10-16T16:41:55;1.73;;;1.30;;
42420;SDS011;28063;48.140;11.588;2022-10-16T16:44:23;1.50;;;1.20;;
42420;SDS011;28063;48.140;11.588;2022-10-16T16:46:50;1.20;;;1.10;;
42420;SDS011;28063;48.140;11.588;2022-10-16T16:49:16;1.30;;;1.17;;
42420;SDS011;28063;48.140;11.588;2022-10-16T16:51:42;0.98;;;0.98;;
42420;SDS011;28063;48.140;11.588;2022-10-16T16:54:07;1.63;;;1.20;;
42420;SDS011;28063;48.140;11.588;2022-10-16T16:56:35;1.50;;;1.40;;
42420;SDS011;28063;48.140;11.588;2022-10-16T16:59:01;2.10;;;1.30;;
42420;SDS011;28063;48.140;11.588;2022-10-16T17:01:27;2.50;;;1.50;;
42420;SDS011;28063;48.140;11.588;2022-10-16T17:03:54;3.03;;;1.48;;
42420;SDS011;28063;48.140;11.588;2022-10-16T17:06:22;2.33;;;1.77;;